createdAt,value
2023-02-27T00:00:20.768Z,2.08
2023-02-27T00:02:49.048Z,2.08
2023-02-27T00:05:15.941Z,2.07
2023-02-27T00:07:42.231Z,2.03
2023-02-27T00:10:09.561Z,2.01
2023-02-27T00:12:37.820Z,1.96
2023-02-27T00:15:08.368Z,1.97
2023-02-27T00:17:34.983Z,1.95
2023-02-27T00:20:01.261Z,1.91
2023-02-27T00:22:27.730Z,1.87
2023-02-27T00:24:54.158Z,1.84
2023-02-27T00:27:20.464Z,1.85
2023-02-27T00:29:46.730Z,1.83
2023-02-27T00:32:13.100Z,1.83
2023-02-27T00:34:39.371Z,1.81
2023-02-27T00:37:05.658Z,1.79
2023-02-27T00:39:32.101Z,1.80
2023-02-27T00:41:58.405Z,1.74
2023-02-27T00:44:24.692Z,1.73
2023-02-27T00:46:51.212Z,1.76
2023-02-27T00:49:17.722Z,1.74
2023-02-27T00:51:44.106Z,1.68
2023-02-27T00:54:10.428Z,1.66
2023-02-27T00:56:37.201Z,1.61
2023-02-27T00:59:04.062Z,1.56
2023-02-27T01:01:30.351Z,1.55
2023-02-27T01:03:56.623Z,1.55
2023-02-27T01:06:22.883Z,1.52
2023-02-27T01:08:49.353Z,1.54
2023-02-27T01:11:15.600Z,1.53
2023-02-27T01:13:41.884Z,1.53
2023-02-27T01:16:10.536Z,1.54
2023-02-27T01:18:36.852Z,1.53
2023-02-27T01:21:03.219Z,1.50
2023-02-27T01:23:29.834Z,1.50
2023-02-27T01:25:56.104Z,1.49
2023-02-27T01:28:22.544Z,1.47
2023-02-27T01:30:48.875Z,1.44
2023-02-27T01:33:15.242Z,1.43
2023-02-27T01:35:41.497Z,1.44
2023-02-27T01:38:07.981Z,1.43
2023-02-27T01:40:38.392Z,1.39
2023-02-27T01:43:05.715Z,1.38
2023-02-27T01:45:39.410Z,1.36
2023-02-27T01:48:05.702Z,1.37
2023-02-27T01:50:33.280Z,1.32
2023-02-27T01:53:01.311Z,1.25
2023-02-27T01:55:28.610Z,1.21
2023-02-27T01:57:55.427Z,1.17
2023-02-27T02:00:22.189Z,1.14
2023-02-27T02:03:11.489Z,1.13
2023-02-27T02:05:38.242Z,1.11
2023-02-27T02:08:05.428Z,1.10
2023-02-27T02:10:32.234Z,1.08
2023-02-27T02:12:59.082Z,1.06
2023-02-27T02:15:29.205Z,1.05
2023-02-27T02:18:19.311Z,1.05
2023-02-27T02:21:01.798Z,1.08
2023-02-27T02:23:31.311Z,1.11
2023-02-27T02:26:09.177Z,1.08
2023-02-27T02:28:53.752Z,1.07
2023-02-27T02:31:20.144Z,1.03
2023-02-27T02:33:49.155Z,0.93
2023-02-27T02:36:31.731Z,0.95
2023-02-27T02:39:06.914Z,0.89
2023-02-27T02:41:33.249Z,0.86
2023-02-27T02:44:02.671Z,0.82
2023-02-27T02:46:32.157Z,0.78
2023-02-27T02:48:58.481Z,0.74
2023-02-27T02:51:34.861Z,0.77
2023-02-27T02:54:01.178Z,0.71
2023-02-27T02:56:44.077Z,0.73
2023-02-27T02:59:16.570Z,0.75
2023-02-27T03:01:46.097Z,0.76
2023-02-27T03:04:28.839Z,0.75
2023-02-27T03:07:02.680Z,0.71
2023-02-27T03:09:34.121Z,0.69
2023-02-27T03:12:02.617Z,0.65
2023-02-27T03:14:38.098Z,0.65
2023-02-27T03:17:06.788Z,0.64
2023-02-27T03:19:55.238Z,0.58
2023-02-27T03:22:32.644Z,0.57
2023-02-27T03:25:00.978Z,0.55
2023-02-27T03:27:30.228Z,0.53
2023-02-27T03:30:29.154Z,0.56
2023-02-27T03:33:01.107Z,0.55
2023-02-27T03:35:35.235Z,0.53
2023-02-27T03:38:06.323Z,0.51
2023-02-27T03:40:52.851Z,0.49
2023-02-27T03:43:26.523Z,0.44
2023-02-27T03:45:52.818Z,0.41
2023-02-27T03:48:19.201Z,0.36
2023-02-27T03:50:45.491Z,0.35
2023-02-27T03:53:17.665Z,0.32
2023-02-27T03:55:45.885Z,0.27
2023-02-27T03:58:12.197Z,0.25
2023-02-27T04:00:38.646Z,0.24
2023-02-27T04:03:05.608Z,0.22
2023-02-27T04:05:32.893Z,0.19
2023-02-27T04:08:11.316Z,0.21
2023-02-27T04:10:51.070Z,0.19
2023-02-27T04:13:27.757Z,0.20
2023-02-27T04:15:54.009Z,0.19
2023-02-27T04:18:32.518Z,0.21
2023-02-27T04:21:05.030Z,0.19
2023-02-27T04:23:39.086Z,0.17
2023-02-27T04:26:14.432Z,0.13
2023-02-27T04:28:40.739Z,0.10
2023-02-27T04:31:13.760Z,0.11
2023-02-27T04:33:45.713Z,0.13
2023-02-27T04:36:16.460Z,0.13
2023-02-27T04:38:50.189Z,0.14
2023-02-27T04:41:18.616Z,0.15
2023-02-27T04:43:45.762Z,0.15
2023-02-27T04:46:13.872Z,0.11
2023-02-27T04:48:53.362Z,0.09
2023-02-27T04:51:22.915Z,0.03
2023-02-27T04:54:00.677Z,0.00
2023-02-27T04:56:35.277Z,-0.04
2023-02-27T04:59:17.075Z,-0.12
2023-02-27T05:01:47.883Z,-0.18
2023-02-27T05:04:15.878Z,-0.18
2023-02-27T05:06:43.782Z,-0.22
2023-02-27T05:09:20.972Z,-0.25
2023-02-27T05:12:09.881Z,-0.29
2023-02-27T05:14:39.029Z,-0.25
2023-02-27T05:17:10.897Z,-0.24
2023-02-27T05:19:39.576Z,-0.22
2023-02-27T05:22:13.492Z,-0.28
2023-02-27T05:24:49.804Z,-0.30
2023-02-27T05:27:35.741Z,-0.35
2023-02-27T05:30:09.494Z,-0.40
2023-02-27T05:32:48.803Z,-0.40
2023-02-27T05:35:15.410Z,-0.35
2023-02-27T05:37:45.084Z,-0.39
2023-02-27T05:40:13.686Z,-0.39
2023-02-27T05:42:42.509Z,-0.38
2023-02-27T05:45:19.962Z,-0.40
2023-02-27T05:47:49.959Z,-0.42
2023-02-27T05:50:18.739Z,-0.40
2023-02-27T05:52:45.737Z,-0.41
2023-02-27T05:55:12.095Z,-0.36
2023-02-27T05:57:38.418Z,-0.40
2023-02-27T06:00:15.009Z,-0.43
2023-02-27T06:02:42.592Z,-0.45
2023-02-27T06:05:09.157Z,-0.46
2023-02-27T06:07:35.785Z,-0.49
2023-02-27T06:10:02.376Z,-0.48
2023-02-27T06:12:28.655Z,-0.48
2023-02-27T06:14:54.989Z,-0.47
2023-02-27T06:17:21.611Z,-0.44
2023-02-27T06:19:47.966Z,-0.40
2023-02-27T06:22:14.310Z,-0.41
2023-02-27T06:24:40.592Z,-0.37
2023-02-27T06:27:06.986Z,-0.36
2023-02-27T06:29:33.301Z,-0.37
2023-02-27T06:31:59.771Z,-0.36
2023-02-27T06:34:26.184Z,-0.36
2023-02-27T06:36:52.562Z,-0.36
2023-02-27T06:39:18.884Z,-0.38
2023-02-27T06:41:45.117Z,-0.35
2023-02-27T06:44:11.411Z,-0.32
2023-02-27T06:46:37.812Z,-0.34
2023-02-27T06:49:04.179Z,-0.25
2023-02-27T06:51:30.621Z,-0.25
2023-02-27T06:53:57.094Z,-0.24
2023-02-27T06:56:23.524Z,-0.23
2023-02-27T06:58:49.933Z,-0.21
2023-02-27T07:01:19.022Z,-0.18
2023-02-27T07:03:45.607Z,-0.12
2023-02-27T07:06:12.964Z,-0.10
2023-02-27T07:09:01.922Z,0.00
2023-02-27T07:11:25.708Z,0.03
2023-02-27T07:13:51.926Z,0.05
2023-02-27T07:16:18.228Z,0.09
2023-02-27T07:18:44.555Z,0.14
2023-02-27T07:21:10.851Z,0.18
2023-02-27T07:23:38.167Z,0.22
2023-02-27T07:26:05.468Z,0.28
2023-02-27T07:28:31.829Z,0.30
2023-02-27T07:30:58.491Z,0.33
2023-02-27T07:33:25.062Z,0.36
2023-02-27T07:35:51.410Z,0.35
2023-02-27T07:38:22.451Z,0.35
2023-02-27T07:40:48.784Z,0.39
2023-02-27T07:43:15.120Z,0.43
2023-02-27T07:45:41.500Z,0.46
2023-02-27T07:48:07.789Z,0.53
2023-02-27T07:50:34.099Z,0.58
2023-02-27T07:53:00.361Z,0.61
2023-02-27T07:55:26.645Z,0.66
2023-02-27T07:57:52.949Z,0.69
2023-02-27T08:00:19.526Z,0.73
2023-02-27T08:02:46.587Z,0.76
2023-02-27T08:05:12.888Z,0.79
2023-02-27T08:07:39.212Z,0.82
2023-02-27T08:10:06.103Z,0.85
2023-02-27T08:12:32.604Z,0.88
2023-02-27T08:14:58.845Z,0.89
2023-02-27T08:17:25.192Z,0.90
2023-02-27T08:19:51.538Z,0.94
2023-02-27T08:22:17.845Z,0.98
2023-02-27T08:24:44.371Z,1.02
2023-02-27T08:27:10.654Z,1.06
2023-02-27T08:29:37.071Z,1.10
2023-02-27T08:32:04.776Z,1.15
2023-02-27T08:34:31.122Z,1.19
2023-02-27T08:36:57.440Z,1.26
2023-02-27T08:39:26.727Z,1.30
2023-02-27T08:41:53.031Z,1.39
2023-02-27T08:44:19.753Z,1.46
2023-02-27T08:46:46.229Z,1.52
2023-02-27T08:49:12.790Z,1.60
2023-02-27T08:51:39.192Z,1.63
2023-02-27T08:54:05.613Z,1.66
2023-02-27T08:56:34.004Z,1.70
2023-02-27T08:59:00.415Z,1.75
2023-02-27T09:01:34.542Z,1.80
2023-02-27T09:04:04.530Z,1.88
2023-02-27T09:06:31.573Z,1.92
2023-02-27T09:08:58.569Z,1.96
2023-02-27T09:11:26.146Z,1.97
2023-02-27T09:13:52.935Z,2.02
2023-02-27T09:16:20.153Z,2.06
2023-02-27T09:18:49.278Z,2.08
2023-02-27T09:21:16.062Z,2.13
2023-02-27T09:23:44.057Z,2.15
2023-02-27T09:26:10.824Z,2.23
2023-02-27T09:28:37.625Z,2.31
2023-02-27T09:31:08.275Z,2.33
2023-02-27T09:33:35.168Z,2.41
2023-02-27T09:36:05.531Z,2.56
2023-02-27T09:38:33.141Z,2.58
2023-02-27T09:40:59.729Z,2.66
2023-02-27T09:43:32.469Z,2.74
2023-02-27T09:46:00.691Z,2.84
2023-02-27T09:48:29.722Z,2.92
2023-02-27T09:50:59.915Z,3.01
2023-02-27T09:53:31.250Z,3.05
2023-02-27T09:56:02.017Z,3.08
2023-02-27T09:58:37.339Z,3.17
2023-02-27T10:01:03.805Z,3.28
2023-02-27T10:03:43.358Z,3.36
2023-02-27T10:06:15.852Z,3.46
2023-02-27T10:09:01.363Z,3.56
2023-02-27T10:11:51.250Z,3.73
2023-02-27T10:14:19.007Z,3.87
2023-02-27T10:16:47.751Z,3.99
2023-02-27T10:19:16.767Z,4.09
2023-02-27T10:21:45.433Z,4.18
2023-02-27T10:24:30.614Z,4.32
2023-02-27T10:27:02.523Z,4.46
2023-02-27T10:29:29.266Z,4.63
2023-02-27T10:32:13.993Z,4.77
2023-02-27T10:34:41.965Z,4.92
2023-02-27T10:37:13.505Z,5.07
2023-02-27T10:39:52.960Z,5.24
2023-02-27T10:42:19.750Z,5.44
2023-02-27T10:44:53.428Z,5.62
2023-02-27T10:47:23.830Z,5.76
2023-02-27T10:49:50.647Z,5.93
2023-02-27T10:52:17.936Z,6.07
2023-02-27T10:54:44.902Z,6.22
2023-02-27T10:57:27.474Z,6.34
2023-02-27T10:59:55.838Z,6.49
2023-02-27T11:02:26.461Z,6.63
2023-02-27T11:04:54.442Z,6.81
2023-02-27T11:07:29.000Z,6.93
2023-02-27T11:09:59.839Z,7.16
2023-02-27T11:12:28.488Z,7.41
2023-02-27T11:15:02.098Z,7.65
2023-02-27T11:17:34.993Z,7.85
2023-02-27T11:20:06.137Z,7.87
2023-02-27T11:22:32.551Z,8.08
2023-02-27T11:25:25.892Z,8.25
2023-02-27T11:27:52.413Z,8.42
2023-02-27T11:30:23.872Z,8.58
2023-02-27T11:32:51.439Z,8.69
2023-02-27T11:35:20.696Z,8.61
2023-02-27T11:37:49.691Z,8.79
2023-02-27T11:40:19.380Z,8.93
2023-02-27T11:42:48.228Z,9.02
2023-02-27T11:46:10.147Z,9.15
2023-02-27T11:48:12.539Z,9.19
2023-02-27T11:50:57.652Z,9.33
2023-02-27T11:53:48.685Z,9.54
2023-02-27T11:56:18.079Z,9.55
2023-02-27T11:58:48.738Z,9.63
2023-02-27T12:01:37.559Z,9.57
2023-02-27T12:04:12.643Z,9.76
2023-02-27T12:07:05.361Z,9.86
2023-02-27T12:09:31.699Z,9.85
2023-02-27T12:12:02.447Z,9.74
2023-02-27T12:14:34.127Z,9.84
2023-02-27T12:17:09.794Z,9.82
2023-02-27T12:19:40.191Z,9.83
2023-02-27T12:22:15.319Z,9.72
2023-02-27T12:24:51.143Z,9.86
2023-02-27T12:27:20.065Z,10.08
2023-02-27T12:30:15.286Z,10.02
2023-02-27T12:32:55.138Z,10.08
2023-02-27T12:35:27.985Z,10.09
2023-02-27T12:37:54.399Z,10.02
2023-02-27T12:40:33.304Z,9.97
2023-02-27T12:43:18.500Z,9.80
2023-02-27T12:46:04.985Z,9.61
2023-02-27T12:48:31.323Z,9.40
2023-02-27T12:51:16.290Z,9.18
2023-02-27T12:53:42.599Z,9.16
2023-02-27T12:56:20.393Z,9.17
2023-02-27T12:59:03.517Z,9.21
2023-02-27T13:01:42.681Z,9.13
2023-02-27T13:04:23.753Z,9.02
2023-02-27T13:06:53.278Z,8.86
2023-02-27T13:09:37.672Z,8.79
2023-02-27T13:12:11.314Z,8.79
2023-02-27T13:14:47.722Z,8.84
2023-02-27T13:17:13.973Z,8.99
2023-02-27T13:19:49.051Z,8.94
2023-02-27T13:22:18.845Z,8.94
2023-02-27T13:24:51.565Z,8.86
2023-02-27T13:27:17.801Z,8.78
2023-02-27T13:29:47.645Z,8.94
2023-02-27T13:32:32.755Z,9.07
2023-02-27T13:35:17.321Z,9.06
2023-02-27T13:37:50.913Z,9.18
2023-02-27T13:40:27.790Z,9.21
2023-02-27T13:42:56.129Z,9.34
2023-02-27T13:45:41.103Z,9.41
2023-02-27T13:48:25.868Z,9.39
2023-02-27T13:50:52.529Z,9.52
2023-02-27T13:53:20.591Z,9.68
2023-02-27T13:55:47.137Z,9.87
2023-02-27T13:58:16.401Z,9.97
2023-02-27T14:00:42.735Z,10.16
2023-02-27T14:03:20.411Z,10.09
2023-02-27T14:05:47.833Z,10.09
2023-02-27T14:08:15.942Z,9.81
2023-02-27T14:10:53.508Z,9.75
2023-02-27T14:13:38.504Z,9.55
2023-02-27T14:16:05.615Z,9.28
2023-02-27T14:18:52.328Z,9.22
2023-02-27T14:21:37.482Z,9.22
2023-02-27T14:24:03.984Z,9.30
2023-02-27T14:26:30.347Z,9.34
2023-02-27T14:28:58.116Z,9.41
2023-02-27T14:31:35.090Z,9.46
2023-02-27T14:34:06.214Z,9.49
2023-02-27T14:36:34.587Z,9.40
2023-02-27T14:39:02.000Z,9.24
2023-02-27T14:41:35.064Z,9.14
2023-02-27T14:44:02.045Z,9.01
2023-02-27T14:46:30.238Z,9.03
2023-02-27T14:49:07.477Z,9.16
2023-02-27T14:51:35.800Z,9.25
2023-02-27T14:54:06.573Z,9.34
2023-02-27T14:56:33.724Z,9.36
2023-02-27T14:59:04.745Z,9.28
2023-02-27T15:01:35.134Z,9.10
2023-02-27T15:04:01.578Z,8.98
2023-02-27T15:06:34.758Z,8.77
2023-02-27T15:09:01.270Z,8.76
2023-02-27T15:11:28.195Z,8.67
2023-02-27T15:13:59.257Z,8.66
2023-02-27T15:16:29.087Z,8.68
2023-02-27T15:18:55.378Z,8.56
2023-02-27T15:21:22.649Z,8.44
2023-02-27T15:23:59.416Z,8.35
2023-02-27T15:26:26.729Z,8.38
2023-02-27T15:28:53.428Z,8.34
2023-02-27T15:31:24.193Z,8.30
2023-02-27T15:33:51.240Z,8.27
2023-02-27T15:36:37.868Z,8.16
2023-02-27T15:39:04.265Z,8.09
2023-02-27T15:41:30.789Z,8.03
2023-02-27T15:43:57.277Z,7.96
2023-02-27T15:46:23.903Z,7.86
2023-02-27T15:48:51.980Z,7.71
2023-02-27T15:51:18.320Z,7.65
2023-02-27T15:53:48.858Z,7.61
2023-02-27T15:56:15.628Z,7.58
2023-02-27T15:58:48.709Z,7.56
2023-02-27T16:01:19.776Z,7.47
2023-02-27T16:03:47.903Z,7.36
2023-02-27T16:06:23.390Z,7.29
2023-02-27T16:08:54.103Z,7.21
2023-02-27T16:11:21.697Z,7.11
2023-02-27T16:13:48.205Z,7.13
2023-02-27T16:16:20.464Z,7.06
2023-02-27T16:18:48.320Z,7.05
2023-02-27T16:21:16.083Z,6.99
2023-02-27T16:23:42.953Z,7.01
2023-02-27T16:26:20.897Z,6.93
2023-02-27T16:28:50.974Z,6.91
2023-02-27T16:31:28.855Z,6.87
2023-02-27T16:33:57.462Z,6.82
2023-02-27T16:36:25.101Z,6.79
2023-02-27T16:38:51.750Z,6.72
2023-02-27T16:41:19.238Z,6.69
2023-02-27T16:43:46.701Z,6.69
2023-02-27T16:46:19.442Z,6.67
2023-02-27T16:48:50.127Z,6.60
2023-02-27T16:51:17.805Z,6.52
2023-02-27T16:53:46.104Z,6.49
2023-02-27T16:56:12.796Z,6.43
2023-02-27T16:58:39.041Z,6.42
2023-02-27T17:01:05.585Z,6.34
2023-02-27T17:03:33.209Z,6.32
2023-02-27T17:05:59.453Z,6.25
2023-02-27T17:08:25.984Z,6.21
2023-02-27T17:10:53.360Z,6.19
2023-02-27T17:13:19.754Z,6.13
2023-02-27T17:15:46.284Z,6.08
2023-02-27T17:18:12.541Z,6.04
2023-02-27T17:20:38.823Z,5.97
2023-02-27T17:23:05.136Z,5.95
2023-02-27T17:25:31.396Z,5.88
2023-02-27T17:27:57.834Z,5.84
2023-02-27T17:30:24.140Z,5.79
2023-02-27T17:32:50.436Z,5.75
2023-02-27T17:35:16.824Z,5.67
2023-02-27T17:37:43.309Z,5.62
2023-02-27T17:40:12.043Z,5.58
2023-02-27T17:42:39.217Z,5.52
2023-02-27T17:45:06.544Z,5.47
2023-02-27T17:47:33.861Z,5.43
2023-02-27T17:50:00.592Z,5.39
2023-02-27T17:52:27.480Z,5.33
2023-02-27T17:54:53.760Z,5.29
2023-02-27T17:57:20.049Z,5.26
2023-02-27T17:59:46.632Z,5.20
2023-02-27T18:02:13.668Z,5.16
2023-02-27T18:04:40.080Z,5.12
2023-02-27T18:07:07.151Z,5.07
2023-02-27T18:09:33.417Z,5.02
2023-02-27T18:11:59.778Z,4.97
2023-02-27T18:14:26.258Z,4.93
2023-02-27T18:16:52.577Z,4.90
2023-02-27T18:19:18.914Z,4.86
2023-02-27T18:21:47.239Z,4.80
2023-02-27T18:24:15.697Z,4.77
2023-02-27T18:26:42.729Z,4.68
2023-02-27T18:29:10.145Z,4.62
2023-02-27T18:31:44.410Z,4.56
2023-02-27T18:34:11.368Z,4.48
2023-02-27T18:36:38.095Z,4.41
2023-02-27T18:39:08.115Z,4.32
2023-02-27T18:41:35.145Z,4.29
2023-02-27T18:44:01.483Z,4.25
2023-02-27T18:46:28.446Z,4.23
2023-02-27T18:48:55.281Z,4.19
2023-02-27T18:51:22.036Z,4.21
2023-02-27T18:53:49.254Z,4.22
2023-02-27T18:56:16.938Z,4.23
2023-02-27T18:58:43.324Z,4.24
2023-02-27T19:01:17.778Z,4.26
2023-02-27T19:03:44.093Z,4.24
2023-02-27T19:06:10.473Z,4.24
2023-02-27T19:08:36.853Z,4.24
2023-02-27T19:11:03.761Z,4.25
2023-02-27T19:13:30.477Z,4.27
2023-02-27T19:15:57.211Z,4.26
2023-02-27T19:18:23.555Z,4.22
2023-02-27T19:20:49.831Z,4.22
2023-02-27T19:23:16.136Z,4.20
2023-02-27T19:25:42.581Z,4.15
2023-02-27T19:28:12.655Z,4.12
2023-02-27T19:30:39.747Z,4.11
2023-02-27T19:33:06.239Z,4.09
2023-02-27T19:35:32.539Z,4.05
2023-02-27T19:37:59.183Z,4.07
2023-02-27T19:40:26.281Z,4.06
2023-02-27T19:42:52.710Z,4.02
2023-02-27T19:45:19.030Z,4.05
2023-02-27T19:47:46.555Z,4.10
2023-02-27T19:50:13.157Z,4.08
2023-02-27T19:52:39.517Z,4.13
2023-02-27T19:55:06.470Z,4.15
2023-02-27T19:57:33.741Z,4.18
2023-02-27T20:00:00.290Z,4.22
2023-02-27T20:02:26.583Z,4.20
2023-02-27T20:04:53.599Z,4.20
2023-02-27T20:07:19.971Z,4.14
2023-02-27T20:09:46.440Z,4.17
2023-02-27T20:12:12.719Z,4.16
2023-02-27T20:14:40.064Z,4.18
2023-02-27T20:17:07.956Z,4.16
2023-02-27T20:19:36.298Z,4.21
2023-02-27T20:22:02.825Z,4.15
2023-02-27T20:24:29.224Z,4.18
2023-02-27T20:26:57.836Z,4.11
2023-02-27T20:29:26.287Z,4.11
2023-02-27T20:31:53.870Z,4.08
2023-02-27T20:34:21.947Z,4.05
2023-02-27T20:36:49.458Z,4.02
2023-02-27T20:39:16.252Z,3.97
2023-02-27T20:41:42.688Z,3.94
2023-02-27T20:44:09.347Z,3.92
2023-02-27T20:46:36.120Z,3.87
2023-02-27T20:49:03.695Z,3.83
2023-02-27T20:51:31.909Z,3.82
2023-02-27T20:53:59.030Z,3.81
2023-02-27T20:56:29.137Z,3.76
2023-02-27T20:58:55.730Z,3.65
2023-02-27T21:01:22.068Z,3.56
2023-02-27T21:03:50.901Z,3.52
2023-02-27T21:06:17.851Z,3.51
2023-02-27T21:08:45.459Z,3.49
2023-02-27T21:11:11.773Z,3.46
2023-02-27T21:13:38.158Z,3.46
2023-02-27T21:16:05.946Z,3.45
2023-02-27T21:18:32.348Z,3.44
2023-02-27T21:21:02.431Z,3.40
2023-02-27T21:23:28.724Z,3.39
2023-02-27T21:25:55.067Z,3.34
2023-02-27T21:28:21.513Z,3.32
2023-02-27T21:30:47.881Z,3.30
2023-02-27T21:33:14.165Z,3.23
2023-02-27T21:35:45.336Z,3.15
2023-02-27T21:38:11.602Z,3.08
2023-02-27T21:40:37.930Z,3.04
2023-02-27T21:43:04.298Z,3.01
2023-02-27T21:45:30.601Z,2.99
2023-02-27T21:47:56.867Z,2.91
2023-02-27T21:50:23.208Z,2.89
2023-02-27T21:52:49.547Z,2.78
2023-02-27T21:55:16.203Z,2.81
2023-02-27T21:57:42.510Z,2.75
2023-02-27T22:00:11.447Z,2.71
2023-02-27T22:02:38.665Z,2.65
2023-02-27T22:05:05.525Z,2.63
2023-02-27T22:07:31.788Z,2.61
2023-02-27T22:09:58.112Z,2.54
2023-02-27T22:12:24.470Z,2.48
2023-02-27T22:14:50.817Z,2.44
2023-02-27T22:17:17.132Z,2.37
2023-02-27T22:19:43.685Z,2.31
2023-02-27T22:22:09.950Z,2.29
2023-02-27T22:24:36.247Z,2.27
2023-02-27T22:27:02.563Z,2.24
2023-02-27T22:29:28.792Z,2.20
2023-02-27T22:31:55.078Z,2.22
2023-02-27T22:34:21.524Z,2.20
2023-02-27T22:36:48.639Z,2.15
2023-02-27T22:39:14.970Z,2.11
2023-02-27T22:41:42.234Z,2.10
2023-02-27T22:44:09.483Z,2.10
2023-02-27T22:46:37.518Z,2.04
2023-02-27T22:49:05.898Z,2.03
2023-02-27T22:51:32.567Z,2.01
2023-02-27T22:54:00.259Z,1.99
2023-02-27T22:56:26.760Z,1.96
2023-02-27T22:58:53.388Z,1.93
2023-02-27T23:01:27.109Z,1.91
2023-02-27T23:03:54.125Z,1.88
2023-02-27T23:06:22.491Z,1.87
2023-02-27T23:08:49.101Z,1.84
2023-02-27T23:11:16.133Z,1.84
2023-02-27T23:13:42.444Z,1.85
2023-02-27T23:16:13.455Z,1.80
2023-02-27T23:18:45.914Z,1.79
2023-02-27T23:21:13.837Z,1.80
2023-02-27T23:23:40.359Z,1.80
2023-02-27T23:26:06.792Z,1.82
2023-02-27T23:28:34.543Z,1.80
2023-02-27T23:31:00.955Z,1.79
2023-02-27T23:33:27.964Z,1.77
2023-02-27T23:35:54.360Z,1.73
2023-02-27T23:38:20.970Z,1.67
2023-02-27T23:40:47.353Z,1.67
2023-02-27T23:43:32.978Z,1.63
2023-02-27T23:46:00.224Z,1.61
2023-02-27T23:48:26.624Z,1.57
2023-02-27T23:50:52.936Z,1.56
2023-02-27T23:53:19.457Z,1.53
2023-02-27T23:55:45.997Z,1.54
2023-02-27T23:58:12.437Z,1.54
